createdAt,value
2018-12-03T00:01:56.515Z,1.10
2018-12-03T00:04:29.962Z,1.10
2018-12-03T00:07:03.094Z,1.10
2018-12-03T00:09:34.585Z,1.10
2018-12-03T00:12:06.653Z,1.10
2018-12-03T00:14:38.052Z,1.10
2018-12-03T00:17:09.504Z,1.20
2018-12-03T00:19:41.642Z,1.20
2018-12-03T00:22:12.821Z,1.20
2018-12-03T00:24:44.470Z,1.20
2018-12-03T00:27:16.045Z,1.20
2018-12-03T00:29:47.378Z,1.20
2018-12-03T00:32:19.768Z,1.20
2018-12-03T00:34:51.955Z,1.20
2018-12-03T00:37:24.150Z,1.20
2018-12-03T00:39:56.375Z,1.20
2018-12-03T00:42:27.762Z,1.30
2018-12-03T00:44:59.223Z,1.30
2018-12-03T00:47:30.600Z,1.30
2018-12-03T00:50:02.004Z,1.30
2018-12-03T00:52:33.671Z,1.30
2018-12-03T00:55:05.984Z,1.40
2018-12-03T00:57:38.481Z,1.40
2018-12-03T01:00:11.399Z,1.40
2018-12-03T01:02:42.758Z,1.40
2018-12-03T01:05:14.062Z,1.40
2018-12-03T01:07:46.246Z,1.40
2018-12-03T01:10:17.620Z,1.40
2018-12-03T01:12:49.545Z,1.50
2018-12-03T01:15:21.901Z,1.50
2018-12-03T01:17:53.963Z,1.50
2018-12-03T01:20:25.286Z,1.50
2018-12-03T01:22:56.700Z,1.50
2018-12-03T01:25:28.324Z,1.50
2018-12-03T01:28:00.199Z,1.50
2018-12-03T01:30:31.794Z,1.60
2018-12-03T01:33:03.099Z,1.60
2018-12-03T01:35:34.582Z,1.60
2018-12-03T01:38:06.247Z,1.60
2018-12-03T01:40:37.937Z,1.60
2018-12-03T01:43:09.284Z,1.60
2018-12-03T01:45:40.511Z,1.60
2018-12-03T01:48:12.020Z,1.60
2018-12-03T01:50:43.604Z,1.60
2018-12-03T01:53:15.392Z,1.60
2018-12-03T01:55:47.183Z,1.60
2018-12-03T01:58:18.718Z,1.70
2018-12-03T02:00:50.812Z,1.70
2018-12-03T02:03:23.272Z,1.70
2018-12-03T02:05:55.456Z,1.70
2018-12-03T02:08:26.972Z,1.70
2018-12-03T02:10:58.940Z,1.70
2018-12-03T02:13:30.641Z,1.70
2018-12-03T02:16:02.830Z,1.70
2018-12-03T02:18:35.423Z,1.80
2018-12-03T02:21:07.387Z,1.80
2018-12-03T02:23:38.986Z,1.80
2018-12-03T02:26:10.327Z,1.80
2018-12-03T02:28:41.768Z,1.80
2018-12-03T02:31:13.783Z,1.80
2018-12-03T02:33:46.012Z,1.80
2018-12-03T02:36:17.316Z,1.80
2018-12-03T02:38:49.965Z,1.80
2018-12-03T02:41:21.487Z,1.80
2018-12-03T02:43:53.310Z,1.90
2018-12-03T02:46:24.699Z,1.90
2018-12-03T02:48:56.899Z,1.90
2018-12-03T02:51:28.207Z,1.90
2018-12-03T02:53:59.757Z,1.90
2018-12-03T02:56:31.470Z,1.90
2018-12-03T02:59:02.850Z,2.00
2018-12-03T03:01:34.466Z,2.00
2018-12-03T03:04:06.216Z,2.00
2018-12-03T03:06:37.599Z,2.00
2018-12-03T03:09:11.465Z,2.00
2018-12-03T03:11:42.952Z,2.00
2018-12-03T03:14:14.599Z,2.00
2018-12-03T03:16:45.859Z,2.00
2018-12-03T03:19:17.285Z,2.10
2018-12-03T03:21:48.723Z,2.10
2018-12-03T03:24:20.869Z,2.10
2018-12-03T03:26:52.625Z,2.10
2018-12-03T03:29:24.637Z,2.10
2018-12-03T03:31:56.122Z,2.10
2018-12-03T03:34:27.442Z,2.10
2018-12-03T03:36:59.401Z,2.10
2018-12-03T03:39:30.870Z,2.20
2018-12-03T03:42:02.473Z,2.20
2018-12-03T03:44:34.498Z,2.20
2018-12-03T03:47:05.998Z,2.20
2018-12-03T03:49:37.434Z,2.20
2018-12-03T03:52:09.201Z,2.20
2018-12-03T03:54:40.779Z,2.30
2018-12-03T03:57:12.075Z,2.30
2018-12-03T03:59:43.866Z,2.30
2018-12-03T04:02:15.345Z,2.30
2018-12-03T04:04:46.709Z,2.30
2018-12-03T04:07:20.422Z,2.30
2018-12-03T04:09:51.750Z,2.40
2018-12-03T04:12:23.621Z,2.40
2018-12-03T04:14:55.388Z,2.40
2018-12-03T04:17:26.700Z,2.50
2018-12-03T04:19:58.368Z,2.40
2018-12-03T04:22:29.640Z,2.50
2018-12-03T04:25:01.132Z,2.50
2018-12-03T04:27:32.478Z,2.50
2018-12-03T04:30:03.964Z,2.50
2018-12-03T04:32:35.484Z,2.60
2018-12-03T04:35:07.395Z,2.60
2018-12-03T04:37:38.905Z,2.60
2018-12-03T04:40:18.138Z,2.70
2018-12-03T04:42:49.603Z,2.70
2018-12-03T04:45:21.647Z,2.70
2018-12-03T04:47:53.225Z,2.80
2018-12-03T04:50:24.869Z,2.80
2018-12-03T04:52:56.692Z,2.80
2018-12-03T04:55:28.397Z,2.80
2018-12-03T04:58:00.486Z,2.80
2018-12-03T05:00:32.340Z,2.90
2018-12-03T05:03:06.104Z,2.90
2018-12-03T05:05:37.919Z,2.90
2018-12-03T05:08:10.287Z,2.90
2018-12-03T05:10:41.957Z,3.00
2018-12-03T05:13:13.550Z,3.00
2018-12-03T05:15:45.381Z,3.00
2018-12-03T05:18:17.212Z,3.00
2018-12-03T05:20:48.763Z,3.00
2018-12-03T05:23:20.368Z,3.10
2018-12-03T05:25:52.280Z,3.10
2018-12-03T05:28:23.979Z,3.10
2018-12-03T05:30:55.795Z,3.10
2018-12-03T05:33:28.095Z,3.10
2018-12-03T05:36:00.703Z,3.20
2018-12-03T05:38:32.489Z,3.20
2018-12-03T05:41:04.632Z,3.20
2018-12-03T05:43:36.086Z,3.20
2018-12-03T05:46:07.362Z,3.20
2018-12-03T05:48:38.660Z,3.20
2018-12-03T05:51:10.125Z,3.30
2018-12-03T05:53:41.423Z,3.30
2018-12-03T05:56:13.034Z,3.30
2018-12-03T05:58:44.283Z,3.30
2018-12-03T06:01:15.784Z,3.30
2018-12-03T06:03:47.723Z,3.30
2018-12-03T06:06:19.454Z,3.40
2018-12-03T06:08:51.446Z,3.40
2018-12-03T06:11:23.542Z,3.40
2018-12-03T06:13:55.911Z,3.40
2018-12-03T06:16:27.926Z,3.40
2018-12-03T06:18:59.561Z,3.50
2018-12-03T06:21:31.064Z,3.50
2018-12-03T06:24:03.626Z,3.50
2018-12-03T06:26:35.580Z,3.50
2018-12-03T06:29:07.340Z,3.50
2018-12-03T06:31:39.108Z,3.60
2018-12-03T06:34:10.502Z,3.60
2018-12-03T06:36:41.994Z,3.60
2018-12-03T06:39:13.397Z,3.60
2018-12-03T06:41:45.041Z,3.60
2018-12-03T06:44:16.555Z,3.70
2018-12-03T06:46:48.091Z,3.70
2018-12-03T06:49:19.552Z,3.70
2018-12-03T06:51:51.058Z,3.70
2018-12-03T06:54:22.883Z,3.70
2018-12-03T06:56:55.087Z,3.70
2018-12-03T06:59:27.581Z,3.80
2018-12-03T07:01:59.321Z,3.80
2018-12-03T07:04:31.302Z,3.80
2018-12-03T07:07:03.047Z,3.80
2018-12-03T07:09:35.771Z,3.80
2018-12-03T07:12:10.026Z,3.80
2018-12-03T07:14:44.264Z,3.80
2018-12-03T07:17:19.863Z,3.80
2018-12-03T07:19:51.852Z,3.80
2018-12-03T07:22:23.531Z,3.80
2018-12-03T07:24:58.661Z,3.80
2018-12-03T07:27:33.098Z,3.80
2018-12-03T07:30:06.840Z,3.80
2018-12-03T07:32:38.917Z,3.90
2018-12-03T07:35:10.697Z,3.80
2018-12-03T07:37:43.609Z,3.90
2018-12-03T07:40:16.109Z,3.90
2018-12-03T07:42:48.649Z,3.90
2018-12-03T07:45:24.634Z,4.00
2018-12-03T07:47:59.194Z,4.00
2018-12-03T07:50:31.410Z,4.00
2018-12-03T07:53:04.320Z,4.10
2018-12-03T07:55:35.684Z,4.10
2018-12-03T07:58:18.819Z,4.10
2018-12-03T08:00:52.063Z,4.10
2018-12-03T08:03:24.064Z,4.10
2018-12-03T08:05:55.879Z,4.20
2018-12-03T08:08:28.912Z,4.20
2018-12-03T08:11:02.442Z,4.20
2018-12-03T08:13:34.068Z,4.30
2018-12-03T08:16:05.853Z,4.30
2018-12-03T08:18:38.104Z,4.40
2018-12-03T08:21:11.093Z,4.40
2018-12-03T08:24:11.779Z,4.40
2018-12-03T08:26:44.773Z,4.40
2018-12-03T08:29:16.695Z,4.40
2018-12-03T08:31:48.416Z,4.40
2018-12-03T08:34:19.924Z,4.40
2018-12-03T08:36:51.597Z,4.40
2018-12-03T08:39:23.157Z,4.50
2018-12-03T08:41:55.142Z,4.50
2018-12-03T08:44:31.858Z,4.50
2018-12-03T08:47:09.607Z,4.50
2018-12-03T08:49:41.233Z,4.60
2018-12-03T08:52:15.404Z,4.60
2018-12-03T08:54:47.644Z,4.60
2018-12-03T08:57:19.650Z,4.70
2018-12-03T08:59:50.953Z,4.80
2018-12-03T09:02:22.440Z,4.80
2018-12-03T09:04:55.387Z,4.80
2018-12-03T09:07:26.962Z,4.90
2018-12-03T09:09:58.810Z,4.90
2018-12-03T09:12:30.405Z,4.90
2018-12-03T09:15:03.144Z,5.00
2018-12-03T09:17:34.848Z,5.00
2018-12-03T09:20:08.828Z,5.10
2018-12-03T09:22:41.346Z,5.10
2018-12-03T09:25:30.741Z,5.10
2018-12-03T09:28:06.148Z,5.10
2018-12-03T09:30:38.606Z,5.10
2018-12-03T09:33:11.777Z,5.20
2018-12-03T09:35:44.406Z,5.20
2018-12-03T09:38:17.258Z,5.20
2018-12-03T09:40:49.192Z,5.20
2018-12-03T09:43:21.369Z,5.20
2018-12-03T09:45:53.884Z,5.30
2018-12-03T09:48:25.634Z,5.30
2018-12-03T09:50:57.093Z,5.30
2018-12-03T09:53:31.453Z,5.30
2018-12-03T09:56:03.464Z,5.40
2018-12-03T09:58:35.272Z,5.50
2018-12-03T10:01:11.550Z,5.50
2018-12-03T10:03:46.889Z,5.60
2018-12-03T10:06:19.694Z,5.60
2018-12-03T10:08:51.601Z,5.70
2018-12-03T10:11:26.104Z,5.70
2018-12-03T10:13:58.070Z,5.70
2018-12-03T10:16:30.391Z,5.80
2018-12-03T10:19:02.128Z,5.80
2018-12-03T10:21:34.064Z,5.80
2018-12-03T10:24:12.832Z,5.80
2018-12-03T10:26:46.336Z,5.80
2018-12-03T10:29:20.287Z,5.80
2018-12-03T10:31:52.912Z,5.90
2018-12-03T10:34:25.686Z,5.90
2018-12-03T10:37:04.350Z,5.90
2018-12-03T10:39:39.365Z,6.00
2018-12-03T10:42:13.485Z,6.00
2018-12-03T10:44:45.083Z,6.00
2018-12-03T10:47:17.353Z,6.00
2018-12-03T10:49:48.620Z,6.10
2018-12-03T10:52:21.384Z,6.10
2018-12-03T10:54:52.930Z,6.10
2018-12-03T10:57:25.155Z,6.10
2018-12-03T10:59:57.978Z,6.10
2018-12-03T11:02:53.417Z,6.10
2018-12-03T11:05:43.965Z,6.10
2018-12-03T11:08:21.759Z,6.20
2018-12-03T11:10:54.720Z,6.20
2018-12-03T11:13:26.219Z,6.20
2018-12-03T11:15:58.105Z,6.20
2018-12-03T11:18:30.452Z,6.20
2018-12-03T11:21:06.374Z,6.20
2018-12-03T11:23:38.733Z,6.20
2018-12-03T11:26:10.550Z,6.20
2018-12-03T11:28:49.121Z,6.20
2018-12-03T11:31:38.984Z,6.20
2018-12-03T11:34:10.581Z,6.20
2018-12-03T11:36:50.746Z,6.20
2018-12-03T11:39:59.676Z,6.20
2018-12-03T11:42:36.695Z,6.20
2018-12-03T11:45:10.832Z,6.30
2018-12-03T11:47:42.340Z,6.20
2018-12-03T11:50:14.462Z,6.20
2018-12-03T11:52:46.305Z,6.20
2018-12-03T11:55:17.946Z,6.30
2018-12-03T11:57:50.805Z,6.30
2018-12-03T12:00:23.176Z,6.30
2018-12-03T12:02:54.980Z,6.30
2018-12-03T12:05:27.513Z,6.30
2018-12-03T12:07:59.297Z,6.30
2018-12-03T12:10:31.281Z,6.30
2018-12-03T12:13:04.857Z,6.30
2018-12-03T12:15:36.484Z,6.30
2018-12-03T12:18:08.070Z,6.30
2018-12-03T12:20:39.762Z,6.30
2018-12-03T12:23:11.552Z,6.40
2018-12-03T12:25:43.914Z,6.40
2018-12-03T12:28:16.173Z,6.40
2018-12-03T12:30:48.465Z,6.40
2018-12-03T12:33:20.202Z,6.50
2018-12-03T12:35:52.046Z,6.50
2018-12-03T12:38:24.424Z,6.50
2018-12-03T12:40:55.835Z,6.50
2018-12-03T12:43:27.366Z,6.50
2018-12-03T12:46:10.339Z,6.50
2018-12-03T12:48:41.891Z,6.50
2018-12-03T12:51:14.052Z,6.50
2018-12-03T12:53:45.508Z,6.50
2018-12-03T12:56:20.411Z,6.60
2018-12-03T12:58:52.043Z,6.60
2018-12-03T13:01:23.781Z,6.60
2018-12-03T13:03:57.912Z,6.70
2018-12-03T13:06:32.360Z,6.70
2018-12-03T13:09:05.360Z,6.70
2018-12-03T13:11:37.040Z,6.70
2018-12-03T13:14:10.223Z,6.70
2018-12-03T13:16:42.540Z,6.70
2018-12-03T13:19:14.025Z,6.70
2018-12-03T13:21:45.682Z,6.70
2018-12-03T13:24:19.453Z,6.70
2018-12-03T13:26:51.051Z,6.70
2018-12-03T13:29:23.304Z,6.80
2018-12-03T13:31:54.660Z,6.80
2018-12-03T13:34:26.147Z,6.80
2018-12-03T13:36:57.872Z,6.80
2018-12-03T13:39:29.402Z,6.80
2018-12-03T13:42:00.686Z,6.80
2018-12-03T13:44:32.851Z,6.80
2018-12-03T13:47:04.970Z,6.80
2018-12-03T13:49:36.389Z,6.90
2018-12-03T13:52:08.517Z,6.90
2018-12-03T13:54:39.800Z,6.80
2018-12-03T13:57:12.125Z,6.90
2018-12-03T13:59:43.957Z,6.90
2018-12-03T14:02:15.643Z,6.90
2018-12-03T14:04:47.380Z,6.90
2018-12-03T14:07:28.799Z,6.90
2018-12-03T14:10:52.853Z,6.90
2018-12-03T14:14:10.674Z,6.80
2018-12-03T14:17:13.693Z,6.90
2018-12-03T14:19:48.894Z,6.90
2018-12-03T14:22:27.116Z,6.90
2018-12-03T14:24:58.431Z,6.90
2018-12-03T14:27:29.859Z,6.90
2018-12-03T14:30:01.584Z,6.90
2018-12-03T14:32:33.443Z,6.90
2018-12-03T14:35:05.904Z,6.90
2018-12-03T14:37:37.197Z,6.90
2018-12-03T14:40:09.812Z,6.90
2018-12-03T14:42:41.580Z,6.90
2018-12-03T14:45:14.360Z,6.90
2018-12-03T14:47:46.016Z,6.90
2018-12-03T14:50:17.647Z,6.90
2018-12-03T14:52:50.077Z,6.90
2018-12-03T14:55:21.433Z,6.90
2018-12-03T14:57:53.154Z,6.90
2018-12-03T15:00:24.731Z,6.90
2018-12-03T15:02:56.824Z,6.90
2018-12-03T15:05:29.079Z,6.90
2018-12-03T15:08:00.629Z,6.90
2018-12-03T15:10:31.997Z,6.90
2018-12-03T15:13:03.415Z,6.90
2018-12-03T15:15:34.774Z,6.80
2018-12-03T15:18:06.465Z,6.80
2018-12-03T15:20:38.021Z,6.90
2018-12-03T15:23:09.568Z,6.90
2018-12-03T15:25:41.242Z,6.90
2018-12-03T15:28:15.441Z,6.90
2018-12-03T15:30:46.707Z,6.80
2018-12-03T15:33:19.386Z,6.80
2018-12-03T15:35:51.132Z,6.80
2018-12-03T15:38:23.144Z,6.80
2018-12-03T15:40:55.836Z,6.80
2018-12-03T15:43:27.709Z,6.80
2018-12-03T15:45:59.629Z,6.80
2018-12-03T15:48:31.510Z,6.80
2018-12-03T15:51:03.356Z,6.80
2018-12-03T15:53:35.184Z,6.80
2018-12-03T15:56:06.788Z,6.80
2018-12-03T15:58:39.014Z,6.80
2018-12-03T16:01:14.418Z,6.80
2018-12-03T16:03:44.239Z,6.80
2018-12-03T16:06:16.037Z,6.80
2018-12-03T16:08:47.908Z,6.80
2018-12-03T16:11:19.457Z,6.80
2018-12-03T16:13:51.152Z,6.90
2018-12-03T16:16:23.216Z,6.90
2018-12-03T16:18:59.809Z,6.80
2018-12-03T16:21:31.356Z,6.80
2018-12-03T16:24:03.194Z,6.90
2018-12-03T16:26:34.848Z,6.90
2018-12-03T16:29:06.256Z,6.80
2018-12-03T16:31:38.347Z,6.80
2018-12-03T16:34:11.056Z,6.90
2018-12-03T16:36:42.617Z,6.90
2018-12-03T16:39:17.660Z,6.90
2018-12-03T16:41:49.723Z,6.80
2018-12-03T16:44:21.267Z,6.80
2018-12-03T16:46:53.131Z,6.80
2018-12-03T16:49:30.267Z,6.80
2018-12-03T16:52:01.925Z,6.70
2018-12-03T16:54:33.523Z,6.70
2018-12-03T16:57:06.462Z,6.70
2018-12-03T16:59:37.968Z,6.70
2018-12-03T17:02:09.695Z,6.70
2018-12-03T17:04:41.989Z,6.70
2018-12-03T17:07:14.166Z,6.70
2018-12-03T17:09:45.596Z,6.70
2018-12-03T17:12:20.801Z,6.70
2018-12-03T17:14:52.444Z,6.80
2018-12-03T17:17:24.049Z,6.70
2018-12-03T17:20:03.671Z,6.80
2018-12-03T17:23:02.940Z,6.80
2018-12-03T17:25:34.628Z,6.80
2018-12-03T17:28:06.832Z,6.80
2018-12-03T17:30:38.353Z,6.80
2018-12-03T17:33:10.042Z,6.80
2018-12-03T17:35:42.434Z,6.80
2018-12-03T17:38:14.241Z,6.80
2018-12-03T17:40:46.420Z,6.80
2018-12-03T17:43:18.027Z,6.80
2018-12-03T17:45:50.191Z,6.80
2018-12-03T17:48:22.368Z,6.80
2018-12-03T17:50:54.696Z,6.70
2018-12-03T17:53:26.751Z,6.70
2018-12-03T17:55:58.262Z,6.70
2018-12-03T17:58:32.228Z,6.80
2018-12-03T18:01:05.222Z,6.80
2018-12-03T18:03:37.010Z,6.80
2018-12-03T18:06:09.522Z,6.90
2018-12-03T18:08:43.959Z,6.80
2018-12-03T18:11:17.389Z,6.90
2018-12-03T18:13:48.971Z,6.90
2018-12-03T18:16:21.255Z,6.90
2018-12-03T18:18:52.511Z,6.90
2018-12-03T18:21:24.850Z,6.90
2018-12-03T18:23:56.213Z,6.90
2018-12-03T18:26:29.957Z,6.90
2018-12-03T18:29:02.085Z,6.90
2018-12-03T18:31:36.132Z,6.90
2018-12-03T18:34:09.295Z,6.90
2018-12-03T18:36:40.835Z,6.90
2018-12-03T18:39:12.849Z,6.90
2018-12-03T18:41:44.526Z,6.90
2018-12-03T18:44:16.481Z,6.90
2018-12-03T18:46:49.882Z,6.90
2018-12-03T18:49:44.158Z,6.90
2018-12-03T18:52:18.555Z,6.90
2018-12-03T18:54:52.226Z,6.90
2018-12-03T18:57:26.723Z,6.90
2018-12-03T18:59:58.476Z,6.90
2018-12-03T19:02:29.962Z,7.00
2018-12-03T19:05:02.092Z,6.90
2018-12-03T19:07:33.490Z,6.90
2018-12-03T19:10:05.028Z,6.90
2018-12-03T19:12:36.782Z,6.90
2018-12-03T19:15:09.117Z,6.90
2018-12-03T19:17:40.921Z,6.90
2018-12-03T19:20:13.471Z,6.90
2018-12-03T19:22:45.073Z,6.90
2018-12-03T19:25:17.601Z,6.90
2018-12-03T19:27:49.213Z,6.90
2018-12-03T19:30:20.753Z,6.90
2018-12-03T19:32:54.504Z,7.00
2018-12-03T19:35:31.329Z,7.00
2018-12-03T19:38:08.324Z,7.00
2018-12-03T19:40:41.094Z,7.00
2018-12-03T19:43:13.928Z,7.00
2018-12-03T19:45:46.405Z,7.00
2018-12-03T19:48:18.803Z,7.00
2018-12-03T19:50:50.800Z,6.90
2018-12-03T19:53:23.439Z,6.90
2018-12-03T19:55:58.363Z,6.90
2018-12-03T19:58:38.880Z,7.00
2018-12-03T20:01:10.629Z,6.90
2018-12-03T20:03:43.037Z,6.90
2018-12-03T20:06:15.150Z,6.90
2018-12-03T20:08:47.017Z,6.90
2018-12-03T20:11:19.501Z,6.90
2018-12-03T20:13:51.985Z,7.00
2018-12-03T20:16:23.809Z,6.90
2018-12-03T20:18:57.426Z,7.00
2018-12-03T20:21:29.579Z,7.00
2018-12-03T20:24:13.079Z,7.00
2018-12-03T20:27:24.732Z,7.00
2018-12-03T20:30:31.504Z,7.00
2018-12-03T20:33:27.731Z,7.00
2018-12-03T20:36:16.818Z,7.00
2018-12-03T20:39:13.396Z,7.00
2018-12-03T20:41:49.629Z,7.00
2018-12-03T20:44:47.377Z,7.00
2018-12-03T20:47:41.410Z,7.00
2018-12-03T20:50:38.425Z,7.00
2018-12-03T20:53:11.729Z,7.00
2018-12-03T20:55:46.073Z,7.10
2018-12-03T20:58:17.888Z,7.00
2018-12-03T21:00:49.516Z,7.00
2018-12-03T21:03:21.227Z,7.00
2018-12-03T21:05:52.992Z,7.00
2018-12-03T21:08:24.859Z,7.10
2018-12-03T21:10:56.623Z,7.10
2018-12-03T21:13:29.019Z,7.10
2018-12-03T21:16:02.476Z,7.10
2018-12-03T21:18:34.106Z,7.10
2018-12-03T21:21:08.138Z,7.10
2018-12-03T21:23:39.733Z,7.10
2018-12-03T21:26:11.603Z,7.10
2018-12-03T21:28:44.016Z,7.10
2018-12-03T21:31:15.535Z,7.10
2018-12-03T21:33:47.364Z,7.10
2018-12-03T21:36:19.589Z,7.10
2018-12-03T21:38:51.380Z,7.10
2018-12-03T21:41:23.559Z,7.10
2018-12-03T21:43:55.266Z,7.10
2018-12-03T21:46:26.704Z,7.10
2018-12-03T21:48:58.159Z,7.10
2018-12-03T21:51:29.869Z,7.20
2018-12-03T21:54:01.596Z,7.10
2018-12-03T21:56:33.129Z,7.10
2018-12-03T21:59:04.603Z,7.20
2018-12-03T22:01:39.487Z,7.20
2018-12-03T22:04:11.229Z,7.20
2018-12-03T22:06:43.215Z,7.20
2018-12-03T22:09:14.892Z,7.10
2018-12-03T22:11:46.211Z,7.10
2018-12-03T22:14:17.665Z,7.20
2018-12-03T22:16:49.733Z,7.10
2018-12-03T22:19:21.363Z,7.10
2018-12-03T22:21:52.893Z,7.10
2018-12-03T22:24:24.318Z,7.10
2018-12-03T22:26:55.792Z,7.10
2018-12-03T22:29:27.235Z,7.10
2018-12-03T22:31:58.641Z,7.10
2018-12-03T22:34:30.236Z,7.10
2018-12-03T22:37:01.592Z,7.00
2018-12-03T22:39:33.795Z,7.00
2018-12-03T22:42:05.639Z,7.00
2018-12-03T22:44:37.186Z,7.00
2018-12-03T22:47:09.144Z,7.00
2018-12-03T22:50:26.226Z,7.00
2018-12-03T22:52:57.106Z,7.00
2018-12-03T22:55:28.081Z,7.00
2018-12-03T22:57:59.388Z,7.00
2018-12-03T23:00:35.710Z,7.00
2018-12-03T23:03:06.933Z,7.00
2018-12-03T23:05:39.121Z,7.00
2018-12-03T23:08:09.544Z,7.00
2018-12-03T23:10:40.375Z,7.00
2018-12-03T23:13:12.055Z,7.00
2018-12-03T23:15:42.597Z,7.00
2018-12-03T23:18:13.322Z,7.00
2018-12-03T23:20:43.951Z,6.90
2018-12-03T23:23:14.649Z,7.00
2018-12-03T23:25:45.382Z,6.90
2018-12-03T23:28:16.113Z,6.90
2018-12-03T23:30:46.657Z,6.90
2018-12-03T23:33:16.544Z,6.90
2018-12-03T23:35:46.840Z,6.90
2018-12-03T23:38:17.078Z,6.80
2018-12-03T23:40:48.085Z,6.70
2018-12-03T23:43:18.397Z,6.70
2018-12-03T23:45:48.232Z,6.60
2018-12-03T23:48:18.454Z,6.60
2018-12-03T23:50:49.000Z,6.60
2018-12-03T23:53:19.430Z,6.60
2018-12-03T23:55:50.038Z,6.60
2018-12-03T23:58:23.526Z,6.60
